createdAt,value
2019-04-26T00:01:20.441Z,95.52
2019-04-26T00:03:50.015Z,95.43
2019-04-26T00:06:19.914Z,95.07
2019-04-26T00:08:53.930Z,94.64
2019-04-26T00:11:51.785Z,94.26
2019-04-26T00:14:40.108Z,94.05
2019-04-26T00:17:13.708Z,94.44
2019-04-26T00:19:43.475Z,95.36
2019-04-26T00:22:13.753Z,95.54
2019-04-26T00:24:44.609Z,95.91
2019-04-26T00:27:14.807Z,95.99
2019-04-26T00:29:44.387Z,96.03
2019-04-26T00:32:13.717Z,95.90
2019-04-26T00:34:43.140Z,95.86
2019-04-26T00:37:13.159Z,95.97
2019-04-26T00:39:43.421Z,96.12
2019-04-26T00:42:14.614Z,96.04
2019-04-26T00:44:44.881Z,95.79
2019-04-26T00:47:15.419Z,95.83
2019-04-26T00:49:45.093Z,96.00
2019-04-26T00:52:15.792Z,96.10
2019-04-26T00:54:46.272Z,96.35
2019-04-26T00:57:18.259Z,96.45
2019-04-26T00:59:49.217Z,96.44
2019-04-26T01:02:25.176Z,96.58
2019-04-26T01:04:54.551Z,96.61
2019-04-26T01:07:23.896Z,96.79
2019-04-26T01:09:53.378Z,96.82
2019-04-26T01:12:23.863Z,96.92
2019-04-26T01:14:53.270Z,96.97
2019-04-26T01:17:22.668Z,96.71
2019-04-26T01:19:54.888Z,96.56
2019-04-26T01:22:27.808Z,96.50
2019-04-26T01:24:59.296Z,96.78
2019-04-26T01:27:30.423Z,96.85
2019-04-26T01:30:03.572Z,96.79
2019-04-26T01:32:34.953Z,96.88
2019-04-26T01:35:04.510Z,96.56
2019-04-26T01:37:34.664Z,96.54
2019-04-26T01:40:08.176Z,96.63
2019-04-26T01:42:58.833Z,96.46
2019-04-26T01:45:40.349Z,96.37
2019-04-26T01:48:32.885Z,96.37
2019-04-26T01:51:02.433Z,96.29
2019-04-26T01:53:32.983Z,96.34
2019-04-26T01:56:02.669Z,96.40
2019-04-26T01:58:32.247Z,96.52
2019-04-26T02:01:35.604Z,96.55
2019-04-26T02:04:05.170Z,96.55
2019-04-26T02:06:35.306Z,96.58
2019-04-26T02:09:07.943Z,96.71
2019-04-26T02:11:37.938Z,96.81
2019-04-26T02:14:07.849Z,96.77
2019-04-26T02:16:37.398Z,96.80
2019-04-26T02:19:07.301Z,96.90
2019-04-26T02:21:42.731Z,97.05
2019-04-26T02:24:17.313Z,97.04
2019-04-26T02:26:48.091Z,96.97
2019-04-26T02:29:20.730Z,97.04
2019-04-26T02:31:55.287Z,97.23
2019-04-26T02:34:27.954Z,97.45
2019-04-26T02:36:59.867Z,97.49
2019-04-26T02:39:35.336Z,97.55
2019-04-26T02:42:07.801Z,97.61
2019-04-26T02:44:46.344Z,97.65
2019-04-26T02:47:44.118Z,97.57
2019-04-26T02:50:19.789Z,97.49
2019-04-26T02:53:17.868Z,97.43
2019-04-26T02:56:15.499Z,97.32
2019-04-26T02:59:07.998Z,96.99
2019-04-26T03:01:38.753Z,96.90
2019-04-26T03:04:08.679Z,96.95
2019-04-26T03:06:41.229Z,96.91
2019-04-26T03:09:13.329Z,96.88
2019-04-26T03:11:45.872Z,97.10
2019-04-26T03:14:37.067Z,97.07
2019-04-26T03:17:26.576Z,97.04
2019-04-26T03:20:02.437Z,97.10
2019-04-26T03:23:21.512Z,97.18
2019-04-26T03:26:43.367Z,97.18
2019-04-26T03:29:32.897Z,97.28
2019-04-26T03:32:49.391Z,97.46
2019-04-26T03:35:28.963Z,97.55
2019-04-26T03:38:17.287Z,97.48
2019-04-26T03:41:12.894Z,97.40
2019-04-26T03:43:55.291Z,97.29
2019-04-26T03:46:49.898Z,97.29
2019-04-26T03:50:02.653Z,97.33
2019-04-26T03:52:57.994Z,97.50
2019-04-26T03:56:23.612Z,97.53
2019-04-26T03:59:14.560Z,97.60
2019-04-26T04:02:06.750Z,97.58
2019-04-26T04:04:46.725Z,97.62
2019-04-26T04:07:35.594Z,97.68
2019-04-26T04:09:54.461Z,97.63
2019-04-26T04:12:49.058Z,97.59
2019-04-26T04:15:24.915Z,97.47
2019-04-26T04:18:00.746Z,97.29
2019-04-26T04:21:11.285Z,97.09
2019-04-26T04:23:57.389Z,97.22
2019-04-26T04:26:39.718Z,96.82
2019-04-26T04:29:55.674Z,96.83
2019-04-26T04:32:51.728Z,96.43
2019-04-26T04:35:24.127Z,95.86
2019-04-26T04:38:09.286Z,95.84
2019-04-26T04:41:11.564Z,95.76
2019-04-26T04:43:49.447Z,94.36
2019-04-26T04:46:37.785Z,94.62
2019-04-26T04:49:30.668Z,94.37
2019-04-26T04:52:31.012Z,94.53
2019-04-26T04:55:08.810Z,94.25
2019-04-26T04:58:10.453Z,93.25
2019-04-26T05:01:22.358Z,92.95
2019-04-26T05:04:06.154Z,91.86
2019-04-26T05:07:10.334Z,91.24
2019-04-26T05:09:45.714Z,89.60
2019-04-26T05:12:22.609Z,88.52
2019-04-26T05:15:54.947Z,87.92
2019-04-26T05:18:54.827Z,87.12
2019-04-26T05:21:39.527Z,87.15
2019-04-26T05:24:34.764Z,84.87
2019-04-26T05:27:49.640Z,81.89
2019-04-26T05:31:17.677Z,78.12
2019-04-26T05:34:10.422Z,76.65
2019-04-26T05:37:15.512Z,72.81
2019-04-26T05:39:53.446Z,70.58
2019-04-26T05:42:51.635Z,65.81
2019-04-26T05:46:11.195Z,62.46
2019-04-26T05:49:16.760Z,59.43
2019-04-26T05:52:21.886Z,55.29
2019-04-26T05:55:29.476Z,52.66
2019-04-26T05:58:26.438Z,54.12
2019-04-26T06:01:28.025Z,55.07
2019-04-26T06:04:39.441Z,54.23
2019-04-26T06:07:37.108Z,52.89
2019-04-26T06:10:22.647Z,53.86
2019-04-26T06:13:02.952Z,54.54
2019-04-26T06:15:52.773Z,52.43
2019-04-26T06:18:53.110Z,48.46
2019-04-26T06:21:49.167Z,48.65
2019-04-26T06:24:41.214Z,47.49
2019-04-26T06:27:48.805Z,47.73
2019-04-26T06:30:31.165Z,47.05
2019-04-26T06:33:29.450Z,47.56
2019-04-26T06:36:04.391Z,46.46
2019-04-26T06:39:30.099Z,45.99
2019-04-26T06:42:27.243Z,44.89
2019-04-26T06:45:32.529Z,47.44
2019-04-26T06:48:15.953Z,47.86
2019-04-26T06:50:52.421Z,47.22
2019-04-26T06:53:59.222Z,44.07
2019-04-26T06:56:57.116Z,43.45
2019-04-26T07:00:08.739Z,43.96
2019-04-26T07:03:03.785Z,44.02
2019-04-26T07:05:36.351Z,42.10
2019-04-26T07:08:40.468Z,40.42
2019-04-26T07:12:15.629Z,39.35
2019-04-26T07:15:03.716Z,39.32
2019-04-26T07:17:46.657Z,38.15
2019-04-26T07:20:36.486Z,36.56
2019-04-26T07:23:34.830Z,33.60
2019-04-26T07:26:43.410Z,33.48
2019-04-26T07:29:30.573Z,35.43
2019-04-26T07:32:17.722Z,33.98
2019-04-26T07:35:04.709Z,33.90
2019-04-26T07:38:12.043Z,30.73
2019-04-26T07:41:23.259Z,31.28
2019-04-26T07:44:22.972Z,31.29
2019-04-26T07:47:34.871Z,30.89
2019-04-26T07:50:43.948Z,33.72
2019-04-26T07:53:33.777Z,34.50
2019-04-26T07:56:16.188Z,32.27
2019-04-26T07:59:29.830Z,32.78
2019-04-26T08:02:32.976Z,32.30
2019-04-26T08:05:15.261Z,33.80
2019-04-26T08:07:48.330Z,31.49
2019-04-26T08:10:21.257Z,31.99
2019-04-26T08:12:57.371Z,30.24
2019-04-26T08:15:42.373Z,30.76
2019-04-26T08:18:21.155Z,29.63
2019-04-26T08:20:54.706Z,28.39
2019-04-26T08:23:39.487Z,28.03
2019-04-26T08:26:07.630Z,25.54
2019-04-26T08:28:39.343Z,26.42
2019-04-26T08:31:15.456Z,25.86
2019-04-26T08:33:49.890Z,28.60
2019-04-26T08:36:23.194Z,29.41
2019-04-26T08:38:54.036Z,28.76
2019-04-26T08:41:25.212Z,25.68
2019-04-26T08:44:14.340Z,26.45
2019-04-26T08:46:57.059Z,25.25
2019-04-26T08:49:44.485Z,26.18
2019-04-26T08:52:16.769Z,27.29
2019-04-26T08:54:55.906Z,27.68
2019-04-26T08:57:29.236Z,27.03
2019-04-26T09:00:01.790Z,26.63
2019-04-26T09:03:11.632Z,25.93
2019-04-26T09:06:01.757Z,26.08
2019-04-26T09:08:39.366Z,26.66
2019-04-26T09:11:08.926Z,24.22
2019-04-26T09:13:42.545Z,24.89
2019-04-26T09:16:14.763Z,25.96
2019-04-26T09:18:52.522Z,26.13
2019-04-26T09:21:17.490Z,26.76
2019-04-26T09:24:04.805Z,27.69
2019-04-26T09:26:37.464Z,28.33
2019-04-26T09:29:26.321Z,28.10
2019-04-26T09:31:58.582Z,27.93
2019-04-26T09:34:41.226Z,29.73
2019-04-26T09:37:11.214Z,29.12
2019-04-26T09:39:42.068Z,28.98
2019-04-26T09:42:23.346Z,30.36
2019-04-26T09:45:29.801Z,30.76
2019-04-26T09:48:03.050Z,28.88
2019-04-26T09:50:41.675Z,28.25
2019-04-26T09:53:11.070Z,28.78
2019-04-26T09:55:40.540Z,28.00
2019-04-26T09:58:10.036Z,29.25
2019-04-26T10:00:39.480Z,30.11
2019-04-26T10:03:09.747Z,29.61
2019-04-26T10:05:40.057Z,28.96
2019-04-26T10:08:12.990Z,28.46
2019-04-26T10:10:40.516Z,27.96
2019-04-26T10:13:27.092Z,29.26
2019-04-26T10:16:33.489Z,29.53
2019-04-26T10:19:28.069Z,30.88
2019-04-26T10:21:57.451Z,32.38
2019-04-26T10:24:26.787Z,31.35
2019-04-26T10:26:59.242Z,32.95
2019-04-26T10:29:27.138Z,32.41
2019-04-26T10:31:56.457Z,34.17
2019-04-26T10:34:25.807Z,32.49
2019-04-26T10:36:56.991Z,32.53
2019-04-26T10:39:28.530Z,33.04
2019-04-26T10:41:57.212Z,32.65
2019-04-26T10:44:26.541Z,29.54
2019-04-26T10:46:56.008Z,32.28
2019-04-26T10:49:45.590Z,31.56
2019-04-26T10:52:32.399Z,31.35
2019-04-26T10:55:24.474Z,31.87
2019-04-26T10:57:56.119Z,35.38
2019-04-26T11:00:31.653Z,34.31
2019-04-26T11:03:04.472Z,34.50
2019-04-26T11:05:32.233Z,33.73
2019-04-26T11:08:01.542Z,35.58
2019-04-26T11:10:31.893Z,35.57
2019-04-26T11:13:01.217Z,34.57
2019-04-26T11:15:32.663Z,34.33
2019-04-26T11:18:01.881Z,34.57
2019-04-26T11:20:31.326Z,37.95
2019-04-26T11:23:00.632Z,40.31
2019-04-26T11:25:29.888Z,43.57
2019-04-26T11:27:59.222Z,45.74
2019-04-26T11:30:28.632Z,47.21
2019-04-26T11:32:57.899Z,49.06
2019-04-26T11:35:29.282Z,50.85
2019-04-26T11:37:58.293Z,52.09
2019-04-26T11:40:28.190Z,51.77
2019-04-26T11:42:57.532Z,51.96
2019-04-26T11:45:26.910Z,52.62
2019-04-26T11:47:56.720Z,53.21
2019-04-26T11:50:26.032Z,52.95
2019-04-26T11:52:55.426Z,53.76
2019-04-26T11:55:25.298Z,53.59
2019-04-26T11:57:55.747Z,54.18
2019-04-26T12:00:32.876Z,54.27
2019-04-26T12:03:02.202Z,54.55
2019-04-26T12:05:56.569Z,54.35
2019-04-26T12:08:31.466Z,54.13
2019-04-26T12:11:00.792Z,55.83
2019-04-26T12:13:30.133Z,56.59
2019-04-26T12:15:59.417Z,56.23
2019-04-26T12:18:28.897Z,56.00
2019-04-26T12:21:01.083Z,55.77
2019-04-26T12:23:29.455Z,55.10
2019-04-26T12:25:58.786Z,54.61
2019-04-26T12:28:28.101Z,55.72
2019-04-26T12:30:58.452Z,55.64
2019-04-26T12:33:28.529Z,56.11
2019-04-26T12:35:57.887Z,55.91
2019-04-26T12:38:28.599Z,57.52
2019-04-26T12:40:58.235Z,58.08
2019-04-26T12:43:27.577Z,57.88
2019-04-26T12:46:14.282Z,57.98
2019-04-26T12:48:46.033Z,57.96
2019-04-26T12:51:14.713Z,57.51
2019-04-26T12:53:44.075Z,58.43
2019-04-26T12:56:13.336Z,57.90
2019-04-26T12:58:45.725Z,59.06
2019-04-26T13:01:14.255Z,59.07
2019-04-26T13:03:45.592Z,59.92
2019-04-26T13:06:15.416Z,60.67
2019-04-26T13:08:47.190Z,60.77
2019-04-26T13:11:48.675Z,60.44
2019-04-26T13:14:23.719Z,60.84
2019-04-26T13:17:02.214Z,61.50
2019-04-26T13:19:31.705Z,61.56
2019-04-26T13:22:01.025Z,60.31
2019-04-26T13:24:30.396Z,60.01
2019-04-26T13:26:59.752Z,60.92
2019-04-26T13:29:31.207Z,60.44
2019-04-26T13:32:00.120Z,60.16
2019-04-26T13:34:29.422Z,62.09
2019-04-26T13:36:59.134Z,61.87
2019-04-26T13:39:28.511Z,62.17
2019-04-26T13:42:04.634Z,62.26
2019-04-26T13:44:46.535Z,63.99
2019-04-26T13:47:30.660Z,64.26
2019-04-26T13:50:13.038Z,63.58
2019-04-26T13:52:42.352Z,63.26
2019-04-26T13:55:11.722Z,63.48
2019-04-26T13:57:44.462Z,64.54
2019-04-26T14:00:14.159Z,64.06
2019-04-26T14:02:43.489Z,64.49
2019-04-26T14:05:15.217Z,63.89
2019-04-26T14:07:43.960Z,63.87
2019-04-26T14:10:13.364Z,63.62
2019-04-26T14:12:46.134Z,63.66
2019-04-26T14:15:13.782Z,63.30
2019-04-26T14:17:43.100Z,63.34
2019-04-26T14:20:12.585Z,64.08
2019-04-26T14:22:49.303Z,64.69
2019-04-26T14:25:20.957Z,65.31
2019-04-26T14:27:52.107Z,66.38
2019-04-26T14:30:21.436Z,66.30
2019-04-26T14:32:53.158Z,65.42
2019-04-26T14:35:21.807Z,65.60
2019-04-26T14:37:51.616Z,66.36
2019-04-26T14:40:21.038Z,65.98
2019-04-26T14:42:50.322Z,65.63
2019-04-26T14:45:23.673Z,65.10
2019-04-26T14:47:50.785Z,65.02
2019-04-26T14:50:20.071Z,65.15
2019-04-26T14:52:49.391Z,64.71
2019-04-26T14:55:21.204Z,64.01
2019-04-26T14:57:51.355Z,64.65
2019-04-26T15:00:26.313Z,64.95
2019-04-26T15:03:17.231Z,66.50
2019-04-26T15:05:57.007Z,65.13
2019-04-26T15:08:26.271Z,65.54
2019-04-26T15:11:00.892Z,65.17
2019-04-26T15:13:26.872Z,65.49
2019-04-26T15:15:56.440Z,65.52
2019-04-26T15:18:29.312Z,66.42
2019-04-26T15:20:58.355Z,66.16
2019-04-26T15:23:27.791Z,66.14
2019-04-26T15:25:58.666Z,66.26
2019-04-26T15:28:28.126Z,65.91
2019-04-26T15:30:57.420Z,66.66
2019-04-26T15:33:26.732Z,66.51
2019-04-26T15:35:56.292Z,66.95
2019-04-26T15:38:25.792Z,66.21
2019-04-26T15:41:20.085Z,66.44
2019-04-26T15:44:11.377Z,66.99
2019-04-26T15:46:57.555Z,65.60
2019-04-26T15:49:38.766Z,66.18
2019-04-26T15:52:08.131Z,66.13
2019-04-26T15:54:37.448Z,65.95
2019-04-26T15:57:06.883Z,65.69
2019-04-26T15:59:36.193Z,65.97
2019-04-26T16:02:05.654Z,66.09
2019-04-26T16:04:35.029Z,66.97
2019-04-26T16:07:04.365Z,66.97
2019-04-26T16:09:33.735Z,67.13
2019-04-26T16:12:03.748Z,66.80
2019-04-26T16:14:36.595Z,66.92
2019-04-26T16:17:06.540Z,66.85
2019-04-26T16:19:35.336Z,67.13
2019-04-26T16:22:04.752Z,67.51
2019-04-26T16:24:34.499Z,68.57
2019-04-26T16:27:04.096Z,68.52
2019-04-26T16:29:58.382Z,68.09
2019-04-26T16:32:58.996Z,68.37
2019-04-26T16:35:28.327Z,68.85
2019-04-26T16:40:32.485Z,69.68
2019-04-26T16:43:02.166Z,69.33
2019-04-26T16:45:32.901Z,69.99
2019-04-26T16:48:02.205Z,70.14
2019-04-26T16:50:37.243Z,70.16
2019-04-26T16:53:02.628Z,70.75
2019-04-26T16:55:35.493Z,70.75
2019-04-26T16:58:04.479Z,70.93
2019-04-26T17:00:30.713Z,69.49
2019-04-26T17:00:50.128Z,71.04
2019-04-26T17:03:07.864Z,71.20
2019-04-26T17:05:47.552Z,71.35
2019-04-26T17:08:10.296Z,71.61
2019-04-26T17:10:38.484Z,72.12
2019-04-26T17:13:07.823Z,72.77
2019-04-26T17:15:37.289Z,72.84
2019-04-26T17:18:06.666Z,72.75
2019-04-26T17:20:36.034Z,72.94
2019-04-26T17:23:25.419Z,73.00
2019-04-26T17:26:09.640Z,73.24
2019-04-26T17:28:39.237Z,73.06
2019-04-26T17:31:08.543Z,73.71
2019-04-26T17:33:37.869Z,73.85
2019-04-26T17:36:07.143Z,74.34
2019-04-26T17:38:39.326Z,74.84
2019-04-26T17:41:10.913Z,74.85
2019-04-26T17:43:42.205Z,75.11
2019-04-26T17:46:10.654Z,75.23
2019-04-26T17:48:40.890Z,75.32
2019-04-26T17:51:18.415Z,75.51
2019-04-26T17:53:43.988Z,75.97
2019-04-26T17:56:13.457Z,75.85
2019-04-26T17:58:51.533Z,76.10
2019-04-26T18:01:39.115Z,76.28
2019-04-26T18:03:51.270Z,76.37
2019-04-26T18:06:28.870Z,76.72
2019-04-26T18:08:54.218Z,76.77
2019-04-26T18:11:19.947Z,76.98
2019-04-26T18:13:51.214Z,77.39
2019-04-26T18:16:22.023Z,77.89
2019-04-26T18:19:10.400Z,77.79
2019-04-26T18:21:56.535Z,78.07
2019-04-26T18:24:21.451Z,78.20
2019-04-26T18:26:54.036Z,78.59
2019-04-26T18:29:23.743Z,78.92
2019-04-26T18:31:53.601Z,79.35
2019-04-26T18:34:23.226Z,79.03
2019-04-26T18:36:52.595Z,79.08
2019-04-26T18:39:26.082Z,79.05
2019-04-26T18:41:53.642Z,79.17
2019-04-26T18:44:35.848Z,79.34
2019-04-26T18:47:04.576Z,79.27
2019-04-26T18:49:33.870Z,79.39
2019-04-26T18:52:03.757Z,79.86
2019-04-26T18:54:47.846Z,80.04
2019-04-26T18:57:17.241Z,80.13
2019-04-26T18:59:51.190Z,80.56
2019-04-26T19:02:19.791Z,80.86
2019-04-26T19:04:49.650Z,81.11
2019-04-26T19:07:31.271Z,80.93
2019-04-26T19:10:02.112Z,80.59
2019-04-26T19:12:23.299Z,80.83
2019-04-26T19:15:09.247Z,81.17
2019-04-26T19:17:52.558Z,81.25
2019-04-26T19:20:30.008Z,81.67
2019-04-26T19:23:00.916Z,81.96
2019-04-26T19:25:35.645Z,82.37
2019-04-26T19:28:04.276Z,82.59
2019-04-26T19:30:32.866Z,82.55
2019-04-26T19:33:02.229Z,82.69
2019-04-26T19:35:32.877Z,82.61
2019-04-26T19:38:03.233Z,82.72
2019-04-26T19:40:32.567Z,82.64
2019-04-26T19:43:07.838Z,82.64
2019-04-26T19:45:46.137Z,82.83
2019-04-26T19:48:22.739Z,83.63
2019-04-26T19:51:27.129Z,83.49
2019-04-26T19:54:09.543Z,83.42
2019-04-26T19:57:01.070Z,83.46
2019-04-26T19:59:33.220Z,83.33
2019-04-26T20:01:59.246Z,82.79
2019-04-26T20:04:30.832Z,82.81
2019-04-26T20:07:01.253Z,82.84
2019-04-26T20:09:31.904Z,83.14
2019-04-26T20:12:02.586Z,82.93
2019-04-26T20:14:44.734Z,83.29
2019-04-26T20:17:03.084Z,83.36
2019-04-26T20:19:37.029Z,83.51
2019-04-26T20:22:03.615Z,83.59
2019-04-26T20:24:32.951Z,83.68
2019-04-26T20:27:03.502Z,83.71
2019-04-26T20:29:33.320Z,83.79
2019-04-26T20:32:24.396Z,84.03
2019-04-26T20:35:12.965Z,84.44
2019-04-26T20:37:41.834Z,84.36
2019-04-26T20:40:20.239Z,84.40
2019-04-26T20:42:43.148Z,84.48
2019-04-26T20:45:16.578Z,84.70
2019-04-26T20:47:46.768Z,84.61
2019-04-26T20:50:14.864Z,84.97
2019-04-26T20:52:45.481Z,85.30
2019-04-26T20:55:15.085Z,85.56
2019-04-26T20:57:45.015Z,85.67
2019-04-26T21:00:14.652Z,85.33
2019-04-26T21:02:44.039Z,85.33
2019-04-26T21:05:14.777Z,85.25
2019-04-26T21:07:49.240Z,83.61
2019-04-26T21:10:21.715Z,83.98
2019-04-26T21:12:47.553Z,84.35
2019-04-26T21:15:20.204Z,84.76
2019-04-26T21:17:48.461Z,85.04
2019-04-26T21:20:17.826Z,85.41
2019-04-26T21:22:47.121Z,85.74
2019-04-26T21:25:23.235Z,86.06
2019-04-26T21:27:58.077Z,86.08
2019-04-26T21:30:47.695Z,86.34
2019-04-26T21:33:39.020Z,86.49
2019-04-26T21:36:36.261Z,86.52
2019-04-26T21:39:20.692Z,86.41
2019-04-26T21:41:50.351Z,86.07
2019-04-26T21:44:19.685Z,85.96
2019-04-26T21:46:49.665Z,85.94
2019-04-26T21:49:22.076Z,86.03
2019-04-26T21:51:52.630Z,86.12
2019-04-26T21:54:24.948Z,86.44
2019-04-26T21:56:53.723Z,85.97
2019-04-26T21:59:24.377Z,85.64
2019-04-26T22:01:59.046Z,85.95
2019-04-26T22:04:28.713Z,86.87
2019-04-26T22:07:00.039Z,86.64
2019-04-26T22:09:55.496Z,85.96
2019-04-26T22:12:27.278Z,85.94
2019-04-26T22:15:13.816Z,86.14
2019-04-26T22:17:45.104Z,86.18
2019-04-26T22:20:29.494Z,86.25
2019-04-26T22:23:18.412Z,86.04
2019-04-26T22:25:50.676Z,85.68
2019-04-26T22:28:20.015Z,85.63
2019-04-26T22:30:49.339Z,85.88
2019-04-26T22:33:18.773Z,85.82
2019-04-26T22:35:50.506Z,85.57
2019-04-26T22:38:23.700Z,85.61
2019-04-26T22:40:53.239Z,85.91
2019-04-26T22:43:36.781Z,86.58
2019-04-26T22:46:31.318Z,86.29
2019-04-26T22:49:03.734Z,85.87
2019-04-26T22:51:35.406Z,87.50
2019-04-26T22:54:06.241Z,87.91
2019-04-26T22:56:37.061Z,88.13
2019-04-26T22:59:07.684Z,88.93
2019-04-26T23:01:39.223Z,90.01
2019-04-26T23:04:07.317Z,90.08
2019-04-26T23:06:36.601Z,90.15
2019-04-26T23:09:11.658Z,90.09
2019-04-26T23:11:43.950Z,90.72
2019-04-26T23:14:27.238Z,91.34
2019-04-26T23:17:34.913Z,90.91
2019-04-26T23:20:20.735Z,91.01
2019-04-26T23:22:50.072Z,91.11
2019-04-26T23:25:19.333Z,91.06
2019-04-26T23:27:50.501Z,91.17
2019-04-26T23:30:19.742Z,91.58
2019-04-26T23:32:52.197Z,91.83
2019-04-26T23:35:20.231Z,92.26
2019-04-26T23:37:49.776Z,92.50
2019-04-26T23:40:20.744Z,92.77
2019-04-26T23:42:51.540Z,91.88
2019-04-26T23:45:23.026Z,92.00
2019-04-26T23:47:53.029Z,91.82
2019-04-26T23:50:25.622Z,92.09
2019-04-26T23:52:53.434Z,92.21
2019-04-26T23:55:23.598Z,92.30
2019-04-26T23:57:53.518Z,92.46
